• Join FlightAware (Why Join?)
  • Login
  • US Flag 
 
12:45AM EST


 

Airport Tracker/Info


-or-


 

Live Flight TrackerFlight Track Log ✈ UPS1121 ✈ 03-May-2013 ✈ KBDL - KSDF

Flight Track Log - Related Links

Times and Time Zones

All times are in EDT time to prevent confusion due to time zone crossing. See the UPS1121 flight status page for this flight to view local times or setup timezone preferences in your user account.

Time Position Orientation Groundspeed Altitude Reporting Facility
EDT Latitude Longitude Course Direction KTS MPH feet Rate Location/Type
11:00PM 41.9140 -73.2390 260° West 369 425 13,400  Level FlightAware
11:01PM 41.8940 -73.3260 253° West 385 443 15,000 2,280 Climbing FlightAware
11:01PM 41.8540 -73.4080 237° Southwest 394 453 16,500 2,040 Climbing FlightAware
11:02PM 41.8100 -73.5030 238° Southwest 413 475 17,900 2,460 Climbing FlightAware
11:03PM 41.7590 -73.5770 227° Southwest 409 471 20,000 2,880 Climbing FlightAware
11:04PM 41.6940 -73.6620 224° Southwest 419 482 22,000 2,520 Climbing FlightAware
11:04PM 41.6410 -73.7360 226° Southwest 427 491 23,600 2,400 Climbing FlightAware
11:05PM 41.5979 -73.7931 225° Southwest 432 497 24,800 2,040 Climbing FlightAware ADS-B
11:05PM 41.5497 -73.8565 225° Southwest 443 510 25,800 1,680 Climbing FlightAware ADS-B
11:05PM 41.5469 -73.8603 225° Southwest 435 501 25,800 780 Level FlightAware ADS-B
11:06PM 41.4989 -73.9186 222° Southwest 460 529 26,200 1,080 Climbing FlightAware ADS-B
11:06PM 41.4577 -73.9774 227° Southwest 472 543 26,900 1,440 Climbing FlightAware ADS-B
11:07PM 41.4104 -74.0394 225° Southwest 480 552 27,700 1,560 Climbing FlightAware ADS-B
11:07PM 41.3623 -74.1023 224° Southwest 487 560 28,500 1,500 Climbing FlightAware ADS-B
11:08PM 41.3050 -74.1714 222° Southwest 489 563 29,300 1,560 Climbing FlightAware ADS-B
11:08PM 41.2937 -74.1916 233° Southwest 490 564 29,600 1,800 Climbing FlightAware ADS-B
11:08PM 41.2611 -74.2342 224° Southwest 493 567 30,200 1,740 Climbing FlightAware ADS-B
11:09PM 41.2392 -74.2569 218° Southwest 491 565 30,500 1,800 Climbing FlightAware ADS-B
11:09PM 41.2141 -74.2896 224° Southwest 489 563 31,000 2,040 Climbing FlightAware ADS-B
11:09PM 41.1980 -74.3121 226° Southwest 488 562 31,400 1,680 Climbing FlightAware ADS-B
11:09PM 41.1829 -74.3345 228° Southwest 486 559 31,600 1,380 Climbing FlightAware ADS-B
11:09PM 41.1828 -74.3420 269° West 486 559 31,700 1,800 Climbing FlightAware ADS-B
11:10PM 41.1375 -74.4121 229° Southwest 485 558 32,600 1,740 Climbing FlightAware ADS-B
11:10PM 41.1356 -74.4158 236° Southwest 481 554 32,600 1,680 Level FlightAware ADS-B
11:10PM 41.0958 -74.4915 235° Southwest 479 551 33,500 1,620 Climbing FlightAware ADS-B
11:11PM 41.0638 -74.5610 239° Southwest 478 550 34,300 1,680 Climbing FlightAware ADS-B
11:11PM 41.0295 -74.6264 235° Southwest 474 545 35,100 1,620 Climbing FlightAware ADS-B
11:12PM 40.9859 -74.6995 232° Southwest 468 539 35,900 840 Climbing FlightAware ADS-B
11:12PM 40.9487 -74.7700 235° Southwest 461 531 36,000 60 Climbing FlightAware ADS-B
11:13PM 40.9180 -74.8394 240° Southwest 457 526 36,000  Level FlightAware ADS-B
11:13PM 40.8812 -74.9099 235° Southwest 458 527 36,000  Level FlightAware ADS-B
11:14PM 40.8409 -74.9741 230° Southwest 457 526 36,000  Level FlightAware ADS-B
11:14PM 40.8069 -75.0479 239° Southwest 461 531 36,000  Level FlightAware ADS-B
11:15PM 40.7650 -75.1135 230° Southwest 461 531 36,000  Level FlightAware ADS-B
11:15PM 40.7271 -75.1826 234° Southwest 461 531 36,000  Level FlightAware ADS-B
11:16PM 40.6894 -75.2515 234° Southwest 461 531 36,000  Level FlightAware ADS-B
11:16PM 40.6515 -75.3210 234° Southwest 462 532 36,000  Level FlightAware ADS-B
11:17PM 40.6138 -75.3901 234° Southwest 462 532 36,000  Level FlightAware ADS-B
11:17PM 40.5760 -75.4591 234° Southwest 463 533 36,000  Level FlightAware ADS-B
11:18PM 40.5381 -75.5285 234° Southwest 463 533 36,000  Level FlightAware ADS-B
11:18PM 40.5002 -75.5975 234° Southwest 464 534 36,000  Level FlightAware ADS-B
11:19PM 40.4619 -75.6670 234° Southwest 464 534 36,000  Level FlightAware ADS-B
11:19PM 40.4239 -75.7364 234° Southwest 464 534 36,000  Level FlightAware ADS-B
11:20PM 40.3871 -75.8033 234° Southwest 464 534 36,000  Level FlightAware ADS-B
11:20PM 40.3651 -75.8488 238° Southwest 461 531 36,000  Level FlightAware ADS-B
11:20PM 40.3422 -75.9100 244° Southwest 458 527 36,000  Level FlightAware ADS-B
11:21PM 40.3190 -75.9913 250° West 457 526 36,000  Level FlightAware ADS-B
11:22PM 40.2967 -76.0706 250° West 456 525 36,000  Level FlightAware ADS-B
11:22PM 40.2746 -76.1499 250° West 455 524 36,000  Level FlightAware ADS-B
11:23PM 40.2522 -76.2310 250° West 454 522 36,000  Level FlightAware ADS-B
11:23PM 40.2304 -76.3094 250° West 452 520 36,000  Level FlightAware ADS-B
11:24PM 40.2088 -76.3872 250° West 451 519 36,000  Level FlightAware ADS-B
11:24PM 40.1870 -76.4647 250° West 448 516 36,000  Level FlightAware ADS-B
11:25PM 40.1655 -76.5417 250° West 447 514 36,000  Level FlightAware ADS-B
11:25PM 40.1440 -76.6185 250° West 446 513 36,000  Level FlightAware ADS-B
11:26PM 40.1223 -76.6954 250° West 445 512 36,000  Level FlightAware ADS-B
11:26PM 40.1007 -76.7717 250° West 444 511 36,000  Level FlightAware ADS-B
11:27PM 40.0777 -76.8529 250° West 442 509 36,000  Level FlightAware ADS-B
11:27PM 40.0555 -76.9306 250° West 441 507 36,000  Level FlightAware ADS-B
11:28PM 40.0340 -77.0063 250° West 440 506 36,000  Level FlightAware ADS-B
11:28PM 40.0124 -77.0818 250° West 440 506 36,000  Level FlightAware ADS-B
11:29PM 39.9894 -77.1617 249° West 439 505 36,000  Level FlightAware ADS-B
11:29PM 39.9659 -77.2434 249° West 438 504 36,000  Level FlightAware ADS-B
11:30PM 39.9433 -77.3214 249° West 437 503 36,000  Level FlightAware ADS-B
11:30PM 39.9217 -77.3963 249° West 437 503 36,000  Level FlightAware ADS-B
11:31PM 39.9001 -77.4706 249° West 436 502 36,000  Level FlightAware ADS-B
11:31PM 39.8741 -77.5598 249° West 436 502 36,000  Level FlightAware ADS-B
11:32PM 39.8284 -77.7158 249° West 434 499 36,000  Level FlightAware ADS-B
11:33PM 39.8022 -77.8045 249° West 432 497 36,000  Level FlightAware ADS-B
11:34PM 39.7801 -77.8796 249° West 432 497 36,000  Level FlightAware ADS-B
11:34PM 39.7461 -77.9943 249° West 432 497 36,000  Level FlightAware ADS-B
11:35PM 39.7130 -78.1050 249° West 431 496 36,000  Level FlightAware
11:36PM 39.6911 -78.1788 249° West 432 497 36,000  Level FlightAware ADS-B
11:36PM 39.6677 -78.2563 249° West 432 497 36,000  Level FlightAware ADS-B
11:37PM 39.6416 -78.3308 246° West 433 498 36,000  Level FlightAware ADS-B
11:37PM 39.6136 -78.4048 244° Southwest 433 498 36,000  Level FlightAware ADS-B
11:38PM 39.5858 -78.4770 243° Southwest 433 498 36,000  Level FlightAware ADS-B
11:38PM 39.5486 -78.5729 243° Southwest 432 497 36,000  Level FlightAware ADS-B
11:39PM 39.5150 -78.6580 243° Southwest 431 496 36,000  Level FlightAware
11:40PM 39.4800 -78.7500 244° Southwest 431 496 36,000  Level FlightAware
11:40PM 39.4390 -78.8530 243° Southwest 430 495 36,000  Level FlightAware
11:41PM 39.4040 -78.9440 244° Southwest 429 494 36,000  Level FlightAware
11:42PM 39.3620 -79.0490 243° Southwest 431 496 36,000  Level FlightAware
11:43PM 39.3270 -79.1390 243° Southwest 431 496 36,000  Level FlightAware
11:43PM 39.2850 -79.2450 243° Southwest 432 497 36,000  Level FlightAware
11:44PM 39.2480 -79.3360 242° Southwest 433 498 36,000  Level FlightAware
11:45PM 39.2110 -79.4300 243° Southwest 433 498 36,000  Level FlightAware
11:45PM 39.1690 -79.5350 243° Southwest 434 499 36,000  Level FlightAware
11:46PM 39.1330 -79.6260 243° Southwest 435 501 36,000  Level FlightAware
11:47PM 39.0950 -79.7190 242° Southwest 435 501 36,000  Level FlightAware
11:47PM 39.0540 -79.8210 243° Southwest 435 501 36,000  Level FlightAware
11:48PM 39.0180 -79.9090 242° Southwest 435 501 36,000  Level FlightAware
11:49PM 38.9540 -80.0660 242° Southwest 437 503 36,000  Level FlightAware
11:50PM 38.9070 -80.1800 242° Southwest 437 503 36,000  Level FlightAware
11:51PM 38.8750 -80.2560 242° Southwest 437 503 36,000 -180 Level FlightAware
11:51PM 38.8280 -80.3710 242° Southwest 433 498 35,800 -720 Descending FlightAware
11:52PM 38.7940 -80.4730 247° West 434 499 35,000 -1,200 Descending FlightAware
11:53PM 38.7660 -80.5710 250° West 442 509 34,100 -720 Descending FlightAware
11:54PM 38.7320 -80.6860 249° West 449 517 34,000 -120 Descending FlightAware
11:54PM 38.7040 -80.7860 250° West 443 510 34,000  Level FlightAware
11:55PM 38.6750 -80.8840 249° West 435 501 34,000  Level FlightAware
11:56PM 38.6440 -80.9910 250° West 433 498 34,000  Level FlightAware
11:57PM 38.6050 -81.1260 250° West 434 499 34,000  Level FlightAware
11:57PM 38.5760 -81.2220 249° West 436 502 34,000  Level FlightAware
11:58PM 38.5450 -81.3290 250° West 439 505 34,000  Level FlightAware
11:59PM 38.5160 -81.4280 250° West 440 506 34,000  Level FlightAware
11:59PM 38.4840 -81.5350 249° West 441 507 34,000  Level FlightAware
12:00AM 38.4540 -81.6350 249° West 444 511 34,000  Level FlightAware
12:01AM 38.4250 -81.7330 249° West 445 512 34,000  Level FlightAware
12:01AM 38.3910 -81.8450 249° West 446 513 34,000  Level FlightAware
12:02AM 38.3620 -81.9440 250° West 447 514 34,000  Level FlightAware
12:03AM 38.3290 -82.0520 249° West 449 517 34,000  Level FlightAware
12:04AM 38.2980 -82.1520 248° West 450 518 34,000  Level FlightAware
12:04AM 38.2680 -82.2520 249° West 451 519 34,000  Level FlightAware
12:05AM 38.2330 -82.3660 249° West 451 519 34,000 -120 Level FlightAware
12:05AM 38.2095 -82.4452 249° West 449 517 33,900 -840 Descending FlightAware ADS-B
12:06AM 38.1696 -82.5755 249° West 449 517 32,900 -1,200 Descending FlightAware ADS-B
12:07AM 38.1465 -82.6505 249° West 455 524 32,300 -840 Descending FlightAware ADS-B
12:07AM 38.1197 -82.7371 249° West 455 524 32,000 -240 Descending FlightAware ADS-B
12:08AM 38.0840 -82.8480 248° West 455 524 32,000  Level FlightAware
12:09AM 38.0570 -82.9320 248° West 455 524 32,000  Level FlightAware
12:10AM 38.0203 -83.0537 249° West 456 525 32,000  Level FlightAware ADS-B
12:10AM 37.9964 -83.1292 248° West 455 524 32,000  Level FlightAware ADS-B
12:11AM 37.9723 -83.2046 248° West 455 524 32,000  Level FlightAware ADS-B
12:11AM 37.9496 -83.2721 247° West 458 527 32,000  Level FlightAware ADS-B
12:12AM 37.9244 -83.3554 249° West 456 525 32,000  Level FlightAware ADS-B
12:12AM 37.9007 -83.4256 247° West 459 528 32,000  Level FlightAware ADS-B
12:13AM 37.8740 -83.5137 249° West 457 526 32,000  Level FlightAware ADS-B
12:14AM 37.8056 -83.7280 248° West 458 527 32,000 -1,200 Level FlightAware ADS-B
12:17AM 37.6766 -84.1272 248° West 444 511 27,100 -1,980 Descending FlightAware ADS-B
12:17AM 37.6530 -84.1989 247° West 439 505 25,800 -2,700 Descending FlightAware ADS-B
12:18AM 37.6217 -84.2937 247° West 437 503 24,000 -2,760 Descending FlightAware ADS-B
12:18AM 37.5985 -84.3644 248° West 431 496 22,600 -1,020 Descending FlightAware ADS-B
12:19AM 37.5790 -84.4230 247° West 431 496 23,000 -2,640 Climbing FlightAware
12:19AM 37.5560 -84.4923 247° West 429 494 20,200 -3,960 Descending FlightAware ADS-B
12:20AM 37.5242 -84.5867 247° West 428 493 18,400 -2,400 Descending Indianapolis Center
12:21AM 37.5022 -84.7281 259° West 428 493 16,000 -2,580 Descending Indianapolis Center
12:22AM 37.5733 -84.8447 308° West 426 490 13,200 -1,440 Descending Indianapolis Center
12:28AM 37.9390 -85.3370 308° West 308 354 6,800 -1,200 Descending FlightAware
12:28AM 37.9560 -85.3610 312° West 307 353 6,400 -1,080 Descending FlightAware
12:28AM 37.9760 -85.3880 313° West 297 342 6,100 -600 Descending FlightAware
12:29AM 38.0020 -85.4350 305° West 273 314 5,900 -180 Descending FlightAware
12:29AM 38.0180 -85.4450 334° Northwest 264 304 6,000 120 Climbing FlightAware
12:29AM 38.0370 -85.4720 312° West 261 300 6,000  Level FlightAware
12:30AM 38.0620 -85.5070 312° West 258 297 6,000  Level FlightAware
12:30AM 38.0850 -85.5400 312° West 259 298 6,000  Level FlightAware
12:31AM 38.1080 -85.5680 316° Northwest 262 302 6,000  Level FlightAware
12:31AM 38.1250 -85.5760 340° North 260 299 6,000  Level FlightAware
12:31AM 38.1440 -85.5900 330° Northwest 259 298 6,000  Level FlightAware
12:32AM 38.1770 -85.5990 348° North 259 298 6,000  Level FlightAware
12:33AM 38.2250 -85.6040 355° North 254 292 6,000  Level FlightAware
12:33AM 38.2530 -85.6120 347° North 253 291 6,000 -240 Level FlightAware
12:33AM 38.2810 -85.6280 336° Northwest 246 283 5,800 -720 Descending FlightAware
12:34AM 38.3210 -85.6300 358° North 248 285 5,300 -900 Descending FlightAware
12:34AM 38.3510 -85.6380 348° North 246 283 5,000 -360 Descending FlightAware
12:35AM 38.3830 -85.6470 348° North 254 292 5,000  Level FlightAware
12:35AM 38.4130 -85.6550 348° North 253 291 5,000  Level FlightAware
12:36AM 38.4460 -85.6650 347° North 252 290 5,000 -180 Level FlightAware
12:36AM 38.4630 -85.6690 350° North 253 291 4,900 -780 Descending FlightAware
12:36AM 38.4920 -85.6780 346° North 251 289 4,500 -1,020 Descending FlightAware
12:37AM 38.5270 -85.6880 347° North 249 287 4,000 -540 Descending FlightAware
12:37AM 38.5560 -85.6980 345° North 226 260 4,000  Level FlightAware
12:38AM 38.5650 -85.7080 319° Northwest 215 247 4,000  Level FlightAware
12:38AM 38.5690 -85.7200 293° West 207 238 4,000  Level FlightAware
12:38AM 38.5550 -85.7610 246° West 197 227 4,000  Level FlightAware
12:39AM 38.5480 -85.7800 245° Southwest 195 224 4,000  Level FlightAware
12:39AM 38.5370 -85.7920 220° Southwest 163 188 4,000  Level FlightAware
12:40AM 38.5090 -85.8080 204° Southwest 153 176 4,000  Level FlightAware
12:40AM 38.4870 -85.8200 203° Southwest 154 177 4,000  Level FlightAware
12:41AM 38.4690 -85.8140 165° South 154 177 4,000  Level FlightAware
12:41AM 38.4550 -85.8130 177° South 149 171 4,000  Level FlightAware
12:42AM 38.4310 -85.8040 164° South 148 170 4,000  Level FlightAware
12:42AM 38.4130 -85.7980 165° South 150 173 4,000  Level FlightAware
12:43AM 38.3940 -85.7910 164° South 151 174 4,000  Level FlightAware
12:43AM 38.3840 -85.7870 163° South 152 175 4,000 -180 Level FlightAware
12:43AM 38.3630 -85.7800 165° South 154 177 3,900 -300 Descending FlightAware
12:43AM 38.3560 -85.7770 161° South 155 178 3,800 -780 Descending FlightAware
12:44AM 38.3360 -85.7700 165° South 155 178 3,400 -900 Descending FlightAware
12:44AM 38.3180 -85.7640 165° South 155 178 3,000 -900 Descending FlightAware
12:45AM 38.2960 -85.7560 164° South 154 177 2,600 -840 Descending FlightAware
12:45AM 38.2760 -85.7490 165° South 145 167 2,200 -780 Descending FlightAware
12:46AM 38.2610 -85.7440 165° South 127 146 1,900 -780 Descending FlightAware
12:46AM 38.2530 -85.7410 164° South 118 136 1,700 -720 Descending FlightAware
12:47AM 38.2380 -85.7360 165° South 110 127 1,400 -600 Descending FlightAware
12:47AM 38.2260 -85.7310 162° South 112 129 1,200 -600 Descending FlightAware
12:47AM 38.2120 -85.7260 164° South 111 128 900 -660 Descending FlightAware
12:48AM 38.1980 -85.7210 164° South 120 138 600 -600 Descending FlightAware
12:48AM 38.1910 -85.7190 167° South 117 135 500 -420 Descending FlightAware